createdAt,value
2022-10-30T00:01:34.760Z,9.07
2022-10-30T00:04:39.671Z,8.82
2022-10-30T00:07:45.334Z,9.38
2022-10-30T00:10:53.439Z,10.63
2022-10-30T00:13:58.878Z,9.02
2022-10-30T00:17:04.371Z,8.88
2022-10-30T00:20:10.389Z,9.52
2022-10-30T00:23:15.353Z,9.88
2022-10-30T00:26:24.217Z,10.50
2022-10-30T00:29:31.378Z,10.25
2022-10-30T00:32:36.818Z,10.52
2022-10-30T00:35:49.514Z,8.35
2022-10-30T00:39:01.624Z,10.02
2022-10-30T00:42:11.547Z,10.35
2022-10-30T00:45:18.060Z,10.75
2022-10-30T00:48:27.668Z,10.38
2022-10-30T00:51:34.901Z,10.77
2022-10-30T00:54:42.426Z,11.57
2022-10-30T00:57:51.180Z,11.07
2022-10-30T01:01:00.280Z,11.27
2022-10-30T01:04:06.624Z,12.10
2022-10-30T01:07:15.845Z,11.88
2022-10-30T01:10:23.911Z,11.80
2022-10-30T01:13:33.642Z,12.60
2022-10-30T01:16:46.907Z,12.45
2022-10-30T01:19:55.729Z,13.00
2022-10-30T01:23:07.819Z,11.93
2022-10-30T01:26:18.310Z,12.77
2022-10-30T01:29:33.588Z,12.07
2022-10-30T01:32:47.061Z,11.88
2022-10-30T01:36:02.900Z,12.95
2022-10-30T01:39:13.041Z,11.55
2022-10-30T01:42:33.289Z,12.27
2022-10-30T01:45:54.976Z,11.57
2022-10-30T01:49:16.346Z,11.95
2022-10-30T01:52:23.414Z,12.43
2022-10-30T01:55:44.635Z,12.15
2022-10-30T01:58:54.843Z,13.77
2022-10-30T02:02:05.047Z,11.32
2022-10-30T02:05:18.567Z,11.30
2022-10-30T02:08:25.629Z,12.00
2022-10-30T02:11:35.989Z,11.50
2022-10-30T02:14:43.472Z,11.95
2022-10-30T02:17:49.597Z,11.18
2022-10-30T02:20:59.507Z,11.57
2022-10-30T02:24:06.091Z,12.10
2022-10-30T02:27:11.548Z,11.02
2022-10-30T02:30:16.650Z,12.38
2022-10-30T02:33:25.118Z,12.05
2022-10-30T02:36:36.393Z,12.85
2022-10-30T02:39:42.539Z,11.20
2022-10-30T02:42:49.905Z,11.43
2022-10-30T02:45:58.656Z,12.45
2022-10-30T02:49:04.041Z,10.98
2022-10-30T02:52:12.970Z,12.45
2022-10-30T02:55:20.224Z,10.82
2022-10-30T02:58:27.301Z,11.68
2022-10-30T03:01:33.092Z,11.70
2022-10-30T03:04:39.321Z,10.02
2022-10-30T03:07:48.998Z,9.88
2022-10-30T03:10:55.902Z,10.93
2022-10-30T03:14:01.644Z,10.35
2022-10-30T03:17:08.905Z,10.82
2022-10-30T03:20:17.531Z,10.63
2022-10-30T03:23:26.572Z,9.75
2022-10-30T03:26:32.001Z,10.63
2022-10-30T03:29:41.160Z,8.98
2022-10-30T03:32:47.650Z,10.05
2022-10-30T03:35:53.478Z,9.13
2022-10-30T03:39:01.379Z,10.40
2022-10-30T03:42:09.159Z,10.93
2022-10-30T03:45:17.796Z,9.45
2022-10-30T03:48:27.251Z,9.10
2022-10-30T03:51:32.773Z,10.18
2022-10-30T03:54:41.768Z,9.85
2022-10-30T03:57:49.106Z,9.35
2022-10-30T04:00:55.079Z,10.13
2022-10-30T04:04:02.382Z,11.40
2022-10-30T04:07:08.509Z,11.00
2022-10-30T04:10:23.833Z,10.80
2022-10-30T04:13:30.179Z,10.35
2022-10-30T04:16:35.799Z,10.52
2022-10-30T04:19:43.677Z,9.98
2022-10-30T04:22:53.427Z,11.20
2022-10-30T04:26:14.178Z,10.75
2022-10-30T04:29:20.355Z,10.02
2022-10-30T04:32:32.362Z,12.80
2022-10-30T04:35:42.967Z,10.15
2022-10-30T04:38:50.856Z,12.48
2022-10-30T04:42:08.620Z,10.82
2022-10-30T04:45:21.686Z,10.82
2022-10-30T04:48:28.128Z,10.95
2022-10-30T04:51:38.543Z,10.75
2022-10-30T04:54:47.458Z,11.02
2022-10-30T04:57:58.846Z,11.30
2022-10-30T05:01:07.794Z,10.65
2022-10-30T05:04:13.627Z,9.98
2022-10-30T05:07:19.858Z,11.55
2022-10-30T05:10:26.214Z,10.70
2022-10-30T05:13:44.711Z,11.35
2022-10-30T05:17:02.199Z,10.63
2022-10-30T05:20:24.276Z,10.55
2022-10-30T05:27:19.187Z,10.15
2022-10-30T05:34:23.451Z,10.70
2022-10-30T05:37:32.741Z,10.93
2022-10-30T05:40:41.106Z,10.70
2022-10-30T05:44:09.902Z,10.52
2022-10-30T05:47:23.547Z,10.25
2022-10-30T05:50:40.621Z,11.07
2022-10-30T05:54:01.201Z,10.70
2022-10-30T06:01:00.799Z,11.52
2022-10-30T06:04:10.096Z,12.07
2022-10-30T06:07:19.000Z,10.68
2022-10-30T06:10:26.582Z,11.60
2022-10-30T06:13:33.988Z,12.75
2022-10-30T06:16:41.583Z,11.75
2022-10-30T06:19:49.472Z,12.73
2022-10-30T06:23:03.793Z,12.02
2022-10-30T06:26:09.142Z,12.27
2022-10-30T06:29:15.382Z,13.60
2022-10-30T06:32:22.664Z,15.15
2022-10-30T06:35:46.862Z,14.63
2022-10-30T06:38:56.729Z,14.40
2022-10-30T06:42:02.789Z,13.88
2022-10-30T06:45:09.310Z,13.90
2022-10-30T06:48:19.048Z,14.55
2022-10-30T06:51:24.503Z,14.73
2022-10-30T06:54:33.364Z,13.73
2022-10-30T06:57:44.618Z,15.00
2022-10-30T07:00:52.190Z,14.00
2022-10-30T07:03:57.610Z,14.02
2022-10-30T07:07:05.682Z,13.25
2022-10-30T07:10:14.367Z,14.18
2022-10-30T07:13:20.320Z,14.75
2022-10-30T07:16:29.341Z,13.52
2022-10-30T07:19:36.099Z,13.75
2022-10-30T07:22:48.889Z,12.70
2022-10-30T07:26:03.367Z,13.60
2022-10-30T07:29:10.528Z,11.82
2022-10-30T07:32:23.714Z,12.38
2022-10-30T07:35:30.947Z,12.65
2022-10-30T07:38:38.260Z,13.00
2022-10-30T07:41:58.302Z,12.88
2022-10-30T07:45:25.284Z,12.77
2022-10-30T07:48:32.450Z,13.52
2022-10-30T07:51:40.525Z,13.93
2022-10-30T07:54:45.821Z,13.82
2022-10-30T07:57:55.309Z,13.57
2022-10-30T08:01:01.151Z,12.43
2022-10-30T08:04:11.578Z,12.27
2022-10-30T08:07:32.305Z,13.77
2022-10-30T08:11:03.398Z,13.20
2022-10-30T08:14:12.048Z,13.30
2022-10-30T08:17:19.912Z,14.32
2022-10-30T08:20:30.274Z,11.93
2022-10-30T08:23:36.601Z,11.38
2022-10-30T08:26:43.841Z,11.80
2022-10-30T08:29:57.851Z,10.60
2022-10-30T08:36:50.320Z,9.95
2022-10-30T08:40:00.715Z,9.18
2022-10-30T08:43:10.499Z,8.98
2022-10-30T08:46:21.745Z,8.98
2022-10-30T08:49:28.761Z,9.15
2022-10-30T08:52:36.868Z,8.88
2022-10-30T08:55:49.224Z,8.70
2022-10-30T08:58:57.049Z,8.10
2022-10-30T09:02:05.521Z,7.60
2022-10-30T09:05:16.238Z,7.90
2022-10-30T09:08:21.960Z,7.88
2022-10-30T09:11:29.547Z,7.53
2022-10-30T09:14:37.321Z,7.38
2022-10-30T09:17:45.664Z,7.07
2022-10-30T09:20:53.369Z,6.97
2022-10-30T09:24:00.049Z,6.65
2022-10-30T09:27:09.014Z,6.60
2022-10-30T09:30:16.984Z,6.30
2022-10-30T09:33:27.393Z,6.65
2022-10-30T09:36:33.379Z,8.13
2022-10-30T09:39:43.651Z,7.40
2022-10-30T09:42:54.052Z,7.30
2022-10-30T09:46:20.101Z,7.50
2022-10-30T09:49:41.375Z,7.80
2022-10-30T09:53:01.186Z,7.40
2022-10-30T09:56:09.909Z,7.30
2022-10-30T09:59:23.168Z,7.03
2022-10-30T10:02:33.570Z,7.38
2022-10-30T10:05:44.349Z,7.72
2022-10-30T10:08:54.372Z,8.30
2022-10-30T10:12:01.420Z,8.20
2022-10-30T10:15:10.817Z,9.20
2022-10-30T10:18:21.444Z,8.80
2022-10-30T10:21:28.454Z,8.57
2022-10-30T10:24:38.108Z,9.45
2022-10-30T10:27:49.938Z,7.72
2022-10-30T10:30:59.780Z,8.35
2022-10-30T10:34:20.618Z,7.97
2022-10-30T10:37:35.006Z,8.57
2022-10-30T10:40:48.378Z,8.48
2022-10-30T10:44:04.844Z,8.32
2022-10-30T10:47:23.723Z,7.18
2022-10-30T10:50:32.789Z,8.45
2022-10-30T10:53:44.362Z,7.15
2022-10-30T10:56:53.595Z,7.85
2022-10-30T11:00:03.094Z,7.30
2022-10-30T11:03:10.604Z,6.75
2022-10-30T11:06:24.297Z,7.13
2022-10-30T11:09:30.993Z,7.22
2022-10-30T11:12:41.889Z,7.13
2022-10-30T11:15:53.506Z,7.45
2022-10-30T11:19:02.727Z,6.95
2022-10-30T11:22:15.523Z,6.68
2022-10-30T11:25:25.465Z,6.88
2022-10-30T11:28:55.279Z,7.45
2022-10-30T11:32:04.826Z,6.30
2022-10-30T11:35:16.225Z,7.25
2022-10-30T11:38:25.900Z,7.53
2022-10-30T11:41:31.110Z,7.53
2022-10-30T11:44:41.290Z,7.20
2022-10-30T11:47:54.442Z,7.75
2022-10-30T11:51:07.039Z,8.30
2022-10-30T11:54:20.921Z,8.38
2022-10-30T11:57:36.483Z,8.70
2022-10-30T12:00:52.225Z,8.40
2022-10-30T12:03:59.138Z,7.75
2022-10-30T12:07:21.792Z,7.72
2022-10-30T12:10:29.443Z,7.53
2022-10-30T12:13:40.692Z,7.43
2022-10-30T12:16:55.505Z,7.47
2022-10-30T12:20:05.496Z,7.78
2022-10-30T12:23:12.935Z,7.10
2022-10-30T12:26:22.666Z,7.50
2022-10-30T12:33:15.049Z,7.50
2022-10-30T12:36:23.107Z,9.07
2022-10-30T12:39:34.326Z,8.73
2022-10-30T12:42:53.233Z,8.82
2022-10-30T12:46:00.348Z,8.02
2022-10-30T12:49:19.351Z,8.40
2022-10-30T12:52:34.664Z,8.63
2022-10-30T12:55:44.356Z,8.75
2022-10-30T12:59:01.322Z,8.80
2022-10-30T13:02:18.662Z,8.35
2022-10-30T13:05:36.125Z,9.07
2022-10-30T13:08:51.033Z,9.35
2022-10-30T13:12:07.473Z,9.10
2022-10-30T13:15:38.038Z,8.23
2022-10-30T13:18:46.628Z,8.98
2022-10-30T13:22:02.761Z,7.75
2022-10-30T13:25:14.723Z,8.90
2022-10-30T13:28:26.783Z,7.90
2022-10-30T13:31:42.079Z,8.30
2022-10-30T13:34:52.129Z,8.18
2022-10-30T13:38:04.806Z,8.07
2022-10-30T13:41:18.652Z,7.90
2022-10-30T13:44:35.246Z,8.30
2022-10-30T13:48:08.011Z,7.95
2022-10-30T13:51:41.017Z,8.07
2022-10-30T13:54:54.709Z,8.80
2022-10-30T13:58:04.597Z,8.45
2022-10-30T14:01:23.622Z,8.23
2022-10-30T14:04:35.792Z,9.02
2022-10-30T14:07:46.476Z,9.32
2022-10-30T14:11:00.385Z,8.77
2022-10-30T14:14:30.412Z,10.05
2022-10-30T14:17:38.327Z,10.57
2022-10-30T14:20:44.353Z,9.75
2022-10-30T14:23:49.608Z,10.18
2022-10-30T14:27:15.725Z,8.70
2022-10-30T14:30:23.180Z,8.93
2022-10-30T14:33:46.907Z,9.32
2022-10-30T14:36:55.433Z,8.88
2022-10-30T14:40:02.079Z,9.07
2022-10-30T14:43:11.844Z,8.38
2022-10-30T14:46:23.371Z,8.40
2022-10-30T14:49:45.183Z,8.38
2022-10-30T14:52:59.203Z,8.07
2022-10-30T14:56:14.589Z,8.70
2022-10-30T14:59:39.015Z,8.63
2022-10-30T15:02:51.079Z,8.75
2022-10-30T15:06:00.151Z,8.80
2022-10-30T15:09:21.188Z,7.72
2022-10-30T15:12:41.607Z,8.32
2022-10-30T15:16:02.193Z,8.75
2022-10-30T15:19:08.611Z,8.25
2022-10-30T15:22:19.187Z,8.70
2022-10-30T15:25:32.009Z,9.90
2022-10-30T15:28:39.451Z,9.90
2022-10-30T15:32:01.876Z,8.77
2022-10-30T15:35:17.069Z,9.68
2022-10-30T15:38:26.588Z,8.38
2022-10-30T15:41:34.396Z,8.35
2022-10-30T15:44:41.556Z,9.18
2022-10-30T15:47:57.268Z,8.93
2022-10-30T15:51:06.124Z,9.43
2022-10-30T15:54:19.505Z,9.07
2022-10-30T15:57:57.436Z,9.73
2022-10-30T16:01:02.556Z,10.40
2022-10-30T16:04:22.110Z,10.40
2022-10-30T16:07:31.293Z,8.80
2022-10-30T16:10:40.646Z,11.63
2022-10-30T16:13:46.563Z,10.73
2022-10-30T16:17:02.558Z,11.40
2022-10-30T16:20:17.934Z,10.63
2022-10-30T16:23:24.672Z,10.70
2022-10-30T16:26:37.581Z,11.65
2022-10-30T16:29:47.096Z,10.98
2022-10-30T16:32:55.662Z,10.63
2022-10-30T16:36:05.724Z,11.70
2022-10-30T16:39:17.099Z,11.50
2022-10-30T16:42:24.158Z,10.98
2022-10-30T16:45:44.330Z,11.35
2022-10-30T16:48:51.989Z,12.07
2022-10-30T16:52:06.047Z,12.07
2022-10-30T16:55:17.659Z,12.70
2022-10-30T16:58:26.911Z,11.40
2022-10-30T17:01:33.611Z,12.20
2022-10-30T17:04:38.633Z,12.10
2022-10-30T17:07:56.859Z,12.23
2022-10-30T17:11:05.677Z,12.50
2022-10-30T17:14:20.726Z,12.38
2022-10-30T17:17:33.267Z,12.23
2022-10-30T17:20:38.974Z,12.80
2022-10-30T17:23:51.054Z,13.20
2022-10-30T17:26:58.365Z,13.77
2022-10-30T17:30:08.645Z,14.07
2022-10-30T17:33:39.517Z,12.70
2022-10-30T17:36:47.438Z,12.63
2022-10-30T17:39:59.771Z,15.20
2022-10-30T17:43:09.605Z,14.23
2022-10-30T17:46:23.075Z,15.73
2022-10-30T17:49:38.668Z,15.95
2022-10-30T17:52:45.853Z,15.10
2022-10-30T17:55:57.575Z,14.80
2022-10-30T17:59:08.731Z,15.15
2022-10-30T18:02:18.352Z,13.57
2022-10-30T18:05:27.491Z,14.07
2022-10-30T18:08:34.712Z,13.48
2022-10-30T18:11:44.306Z,14.23
2022-10-30T18:15:05.684Z,15.35
2022-10-30T18:18:13.303Z,14.95
2022-10-30T18:21:19.663Z,15.07
2022-10-30T18:24:25.220Z,14.93
2022-10-30T18:27:34.145Z,14.40
2022-10-30T18:30:42.201Z,17.55
2022-10-30T18:33:47.967Z,17.00
2022-10-30T18:36:58.163Z,15.25
2022-10-30T18:40:03.681Z,15.82
2022-10-30T18:43:16.385Z,16.15
2022-10-30T18:46:24.081Z,15.80
2022-10-30T18:49:33.845Z,14.32
2022-10-30T18:52:42.225Z,16.23
2022-10-30T18:59:02.687Z,16.85
2022-10-30T19:02:18.022Z,17.85
2022-10-30T19:05:32.003Z,18.20
2022-10-30T19:08:43.608Z,18.13
2022-10-30T19:11:48.842Z,17.08
2022-10-30T19:14:57.407Z,18.30
2022-10-30T19:18:10.126Z,18.35
2022-10-30T19:21:19.848Z,17.10
2022-10-30T19:24:24.917Z,17.88
2022-10-30T19:27:40.662Z,16.73
2022-10-30T19:30:56.527Z,17.67
2022-10-30T19:34:03.365Z,17.90
2022-10-30T19:37:08.692Z,18.02
2022-10-30T19:40:24.817Z,18.17
2022-10-30T19:43:32.924Z,17.83
2022-10-30T19:46:49.025Z,21.77
2022-10-30T19:49:55.459Z,21.23
2022-10-30T19:53:05.589Z,20.58
2022-10-30T19:56:12.543Z,18.65
2022-10-30T19:59:21.694Z,19.30
2022-10-30T20:02:32.311Z,18.23
2022-10-30T20:05:41.386Z,19.42
2022-10-30T20:08:55.419Z,20.20
2022-10-30T20:12:04.219Z,18.25
2022-10-30T20:15:34.668Z,15.40
2022-10-30T20:21:57.361Z,19.15
2022-10-30T20:25:05.889Z,18.88
2022-10-30T20:28:28.259Z,18.83
2022-10-30T20:32:06.891Z,18.55
2022-10-30T20:35:13.665Z,18.90
2022-10-30T20:38:26.430Z,20.35
2022-10-30T20:41:39.271Z,18.98
2022-10-30T20:44:49.845Z,20.33
2022-10-30T20:47:56.649Z,18.67
2022-10-30T20:51:20.175Z,18.48
2022-10-30T20:54:29.177Z,18.90
2022-10-30T20:57:48.098Z,20.63
2022-10-30T21:00:56.750Z,19.38
2022-10-30T21:04:02.886Z,18.77
2022-10-30T21:07:08.473Z,21.02
2022-10-30T21:10:17.745Z,21.40
2022-10-30T21:13:28.515Z,22.90
2022-10-30T21:16:38.916Z,20.63
2022-10-30T21:19:45.282Z,23.95
2022-10-30T21:22:50.918Z,22.23
2022-10-30T21:26:04.088Z,21.95
2022-10-30T21:29:47.266Z,21.13
2022-10-30T21:33:02.446Z,20.97
2022-10-30T21:36:14.613Z,20.50
2022-10-30T21:39:23.900Z,21.48
2022-10-30T21:42:33.372Z,19.00
2022-10-30T21:45:39.933Z,19.20
2022-10-30T21:48:54.901Z,21.20
2022-10-30T21:52:00.740Z,22.00
2022-10-30T21:55:11.553Z,18.08
2022-10-30T21:58:19.167Z,19.83
2022-10-30T22:01:25.698Z,20.88
2022-10-30T22:04:43.112Z,21.88
2022-10-30T22:07:55.929Z,19.60
2022-10-30T22:11:08.969Z,19.52
2022-10-30T22:14:18.408Z,21.83
2022-10-30T22:20:36.567Z,19.27
2022-10-30T22:23:41.994Z,20.38
2022-10-30T22:27:04.200Z,19.60
2022-10-30T22:30:13.494Z,20.40
2022-10-30T22:33:27.033Z,19.42
2022-10-30T22:36:34.072Z,19.88
2022-10-30T22:39:41.830Z,21.95
2022-10-30T22:42:49.286Z,21.23
2022-10-30T22:46:09.809Z,21.92
2022-10-30T22:49:18.162Z,19.67
2022-10-30T22:52:25.427Z,18.52
2022-10-30T22:55:33.064Z,26.15
2022-10-30T22:58:48.140Z,19.40
2022-10-30T23:01:56.213Z,20.88
2022-10-30T23:05:01.808Z,24.40
2022-10-30T23:08:08.089Z,23.25
2022-10-30T23:11:16.456Z,22.75
2022-10-30T23:14:22.334Z,22.33
2022-10-30T23:17:34.109Z,18.20
2022-10-30T23:20:43.552Z,19.05
2022-10-30T23:23:52.028Z,18.25
2022-10-30T23:27:01.959Z,17.20
2022-10-30T23:30:08.749Z,26.20
2022-10-30T23:33:18.419Z,18.85
2022-10-30T23:36:24.529Z,23.85
2022-10-30T23:39:32.085Z,20.58
2022-10-30T23:42:44.710Z,17.85
2022-10-30T23:45:58.192Z,20.23
2022-10-30T23:49:08.423Z,21.13
2022-10-30T23:52:16.035Z,18.85
2022-10-30T23:55:24.745Z,21.60
2022-10-30T23:58:30.001Z,23.17
